EDT,Max TemperatureF,Mean TemperatureF,Min TemperatureF,Max Dew PointF,MeanDew PointF,Min DewpointF,Max Humidity, Mean Humidity, Min Humidity, Max Sea Level PressureIn, Mean Sea Level PressureIn, Min Sea Level PressureIn, Max VisibilityMiles, Mean VisibilityMiles, Min VisibilityMiles, Max Wind SpeedMPH, Mean Wind SpeedMPH, Max Gust SpeedMPH,PrecipitationIn, CloudCover, Events, WindDirDegrees
2013-3-1,38,35,32,33,32,28,100,91,75,29.96,29.93,29.89,10,8,2,9,4,,0.00,8,Snow,343
2013-3-2,32,29,26,28,22,18,87,75,68,30.03,29.97,29.93,10,10,4,9,5,,0.00,8,Snow,338
2013-3-3,31,28,24,24,22,17,94,80,57,30.07,30.02,30.00,10,8,1,10,4,16,0.00,8,Snow,291
2013-3-4,45,34,22,24,20,16,96,62,31,30.17,30.08,30.00,10,10,10,7,2,,0.00,3,,174
2013-3-5,50,41,32,47,36,22,97,79,51,30.02,29.78,29.51,10,8,2,26,6,44,0.00,8,Rain-Snow,135
2013-3-6,32,30,28,30,29,26,98,93,83,30.22,29.96,29.70,10,4,2,17,10,30,0.00,8,Snow,276
2013-3-7,35,32,30,30,29,28,96,88,76,30.35,30.29,30.21,10,9,5,7,3,,0.00,8,,287
2013-3-8,44,36,28,31,27,24,98,75,48,30.42,30.37,30.32,10,9,5,7,2,,0.00,3,,352
2013-3-9,64,45,26,32,28,24,95,55,22,30.35,30.23,30.13,10,10,2,8,2,,0.00,1,,130
2013-3-10,75,62,50,34,31,27,45,31,20,30.13,30.04,29.97,10,10,10,16,7,23,0.00,1,,161
2013-3-11,64,54,43,53,42,31,96,60,32,29.97,29.84,29.73,10,10,4,21,12,28,0.00,4,Rain,187
2013-3-12,45,41,37,40,32,29,95,72,54,30.04,29.97,29.88,10,10,3,12,5,18,0.00,6,,283
2013-3-13,38,33,27,30,23,15,90,67,49,30.28,30.13,30.03,10,9,1,17,7,28,0.00,7,Snow,284
2013-3-14,44,34,24,22,17,12,81,55,30,30.34,30.27,30.20,10,10,10,10,6,20,0.00,1,Snow,275
2013-3-15,60,46,32,36,28,15,66,49,38,30.21,30.01,29.86,10,10,10,16,5,22,0.00,1,,218
2013-3-16,72,60,47,48,44,36,77,53,40,29.96,29.77,29.70,10,10,10,21,8,34,0.00,4,,268
2013-3-17,45,41,36,40,37,35,99,92,78,30.09,30.01,29.95,10,9,5,10,6,16,0.00,8,,31
2013-3-18,53,44,36,50,45,37,100,91,70,29.95,29.81,29.70,10,8,1,21,8,29,0.00,7,Rain,160
2013-3-19,50,44,38,48,23,4,95,50,17,30.10,29.99,29.79,10,10,5,24,10,33,0.00,2,,277
2013-3-20,48,40,30,27,16,11,69,41,26,30.11,29.99,29.83,10,10,7,21,6,31,0.00,3,Snow,268
2013-3-21,32,26,21,19,12,8,82,56,41,30.02,29.95,29.91,10,9,1,14,6,20,0.00,6,Snow,310
2013-3-22,45,32,18,17,14,9,83,50,27,30.08,30.02,29.96,10,10,5,7,1,,0.00,2,,229
2013-3-23,52,44,35,25,20,14,63,41,33,30.03,29.97,29.85,10,10,10,8,2,,0.00,5,,66
2013-3-24,46,42,37,46,35,21,100,77,43,29.85,29.58,29.37,10,8,2,14,7,21,0.00,6,Rain,86
2013-3-25,41,37,31,39,30,27,94,85,69,29.90,29.63,29.45,10,7,1,21,13,32,0.00,8,Snow,263
2013-3-26,38,34,31,33,31,30,98,92,75,30.22,30.05,29.90,10,7,0,12,6,17,0.00,8,Snow,287
2013-3-27,42,36,31,30,26,24,88,68,53,30.28,30.25,30.21,10,10,10,12,6,21,0.00,7,,282
2013-3-28,50,42,33,26,24,21,71,52,34,30.33,30.28,30.25,10,10,10,9,3,,0.00,4,,294
2013-3-29,58,45,32,36,26,23,74,51,27,30.32,30.26,30.18,10,10,10,10,3,,0.00,2,,245
2013-3-30,61,49,37,39,34,28,91,58,29,30.24,30.14,29.99,10,10,10,9,2,,0.00,2,,179
2013-3-31,54,50,47,50,46,34,99,83,46,29.98,29.86,29.82,10,9,2,14,6,26,0.00,7,Rain,222